createdAt,value
2023-03-06T00:03:58.972Z,2.95
2023-03-06T00:09:01.817Z,2.40
2023-03-06T00:14:06.028Z,2.90
2023-03-06T00:19:08.901Z,3.30
2023-03-06T00:24:11.803Z,3.30
2023-03-06T00:29:15.988Z,2.92
2023-03-06T00:34:19.623Z,3.53
2023-03-06T00:39:23.488Z,2.85
2023-03-06T00:44:27.715Z,3.60
2023-03-06T00:49:30.572Z,2.88
2023-03-06T00:54:33.469Z,3.10
2023-03-06T00:59:37.868Z,2.40
2023-03-06T01:04:40.726Z,2.80
2023-03-06T01:09:43.593Z,3.50
2023-03-06T01:14:47.767Z,3.78
2023-03-06T01:19:50.572Z,3.40
2023-03-06T01:24:53.458Z,2.78
2023-03-06T01:29:57.975Z,3.53
2023-03-06T01:35:00.851Z,3.58
2023-03-06T01:40:03.753Z,3.55
2023-03-06T01:45:25.913Z,3.42
2023-03-06T01:50:29.437Z,2.70
2023-03-06T01:55:35.797Z,2.90
2023-03-06T02:00:40.118Z,2.08
2023-03-06T02:05:43.991Z,3.38
2023-03-06T02:10:59.453Z,2.70
2023-03-06T02:16:03.922Z,3.60
2023-03-06T02:21:09.133Z,3.45
2023-03-06T02:26:14.604Z,2.95
2023-03-06T02:31:23.508Z,3.90
2023-03-06T02:36:26.415Z,2.30
2023-03-06T02:41:30.588Z,3.10
2023-03-06T02:46:33.741Z,3.90
2023-03-06T02:51:36.737Z,3.40
2023-03-06T02:56:40.941Z,2.58
2023-03-06T03:01:43.859Z,2.33
2023-03-06T03:06:46.891Z,2.90
2023-03-06T03:11:51.071Z,2.40
2023-03-06T03:16:54.121Z,3.25
2023-03-06T03:21:56.974Z,2.58
2023-03-06T03:27:01.169Z,2.30
2023-03-06T03:32:04.453Z,2.80
2023-03-06T03:37:07.548Z,2.35
2023-03-06T03:42:11.713Z,3.35
2023-03-06T03:47:15.026Z,3.95
2023-03-06T03:52:17.863Z,3.65
2023-03-06T03:57:22.053Z,2.38
2023-03-06T04:02:25.451Z,3.58
2023-03-06T04:07:28.395Z,3.22
2023-03-06T04:12:32.588Z,2.83
2023-03-06T04:17:35.511Z,3.55
2023-03-06T04:22:38.380Z,3.78
2023-03-06T04:27:42.557Z,2.30
2023-03-06T04:32:45.545Z,3.03
2023-03-06T04:37:48.394Z,3.08
2023-03-06T04:42:52.538Z,3.25
2023-03-06T04:47:55.691Z,3.50
2023-03-06T04:52:59.289Z,3.03
2023-03-06T04:58:03.639Z,2.90
2023-03-06T05:03:06.465Z,3.10
2023-03-06T05:08:11.366Z,2.47
2023-03-06T05:13:15.549Z,4.03
2023-03-06T05:18:19.196Z,3.78
2023-03-06T05:23:22.016Z,3.05
2023-03-06T05:28:26.893Z,4.13
2023-03-06T05:33:29.716Z,2.78
2023-03-06T05:38:33.461Z,3.70
2023-03-06T05:43:37.612Z,4.28
2023-03-06T05:48:40.769Z,2.63
2023-03-06T05:53:43.595Z,2.30
2023-03-06T05:58:47.772Z,3.53
2023-03-06T06:03:50.715Z,2.47
2023-03-06T06:08:53.823Z,3.10
2023-03-06T06:13:57.992Z,3.72
2023-03-06T06:19:00.917Z,3.25
2023-03-06T06:24:04.042Z,5.55
2023-03-06T06:29:08.511Z,4.78
2023-03-06T06:34:12.318Z,4.35
2023-03-06T06:39:16.799Z,4.72
2023-03-06T06:44:21.883Z,4.90
2023-03-06T06:49:24.788Z,4.38
2023-03-06T06:54:28.543Z,7.82
2023-03-06T06:59:32.708Z,6.65
2023-03-06T07:04:35.625Z,7.50
2023-03-06T07:09:39.733Z,10.38
2023-03-06T07:14:43.973Z,8.40
2023-03-06T07:19:46.927Z,10.13
2023-03-06T07:24:49.768Z,10.63
2023-03-06T07:29:53.954Z,14.30
2023-03-06T07:35:17.171Z,9.48
2023-03-06T07:40:20.669Z,10.65
2023-03-06T07:45:25.399Z,9.82
2023-03-06T07:50:28.443Z,9.05
2023-03-06T07:55:31.227Z,10.77
2023-03-06T08:00:35.393Z,8.75
2023-03-06T08:05:38.481Z,10.88
2023-03-06T08:10:41.359Z,8.52
2023-03-06T08:15:50.265Z,13.98
2023-03-06T08:21:02.685Z,11.45
2023-03-06T08:26:07.938Z,9.32
2023-03-06T08:31:15.054Z,8.93
2023-03-06T08:36:18.130Z,10.05
2023-03-06T08:41:21.307Z,9.77
2023-03-06T08:46:27.627Z,8.98
2023-03-06T08:51:30.578Z,11.57
2023-03-06T08:56:35.158Z,10.23
2023-03-06T09:01:40.094Z,12.85
2023-03-06T09:06:45.180Z,9.82
2023-03-06T09:11:48.040Z,11.23
2023-03-06T09:16:52.317Z,8.05
2023-03-06T09:21:55.232Z,12.88
2023-03-06T09:26:58.100Z,6.60
2023-03-06T09:32:02.351Z,6.80
2023-03-06T09:37:05.320Z,7.38
2023-03-06T09:42:12.223Z,5.95
2023-03-06T09:47:40.748Z,8.52
2023-03-06T09:52:53.666Z,9.20
2023-03-06T09:58:02.275Z,6.45
2023-03-06T10:03:26.017Z,10.57
2023-03-06T10:08:37.303Z,7.45
2023-03-06T10:13:43.434Z,9.63
2023-03-06T10:18:47.969Z,7.95
2023-03-06T10:23:54.979Z,6.80
2023-03-06T10:29:17.024Z,5.22
2023-03-06T10:34:23.996Z,6.53
2023-03-06T10:39:28.355Z,7.95
2023-03-06T10:44:31.715Z,9.82
2023-03-06T10:49:37.745Z,7.22
2023-03-06T10:54:43.062Z,7.88
2023-03-06T10:59:52.802Z,5.32
2023-03-06T11:04:59.205Z,6.07
2023-03-06T11:10:07.619Z,3.88
2023-03-06T11:15:18.631Z,4.78
2023-03-06T11:20:25.343Z,4.25
2023-03-06T11:25:33.724Z,4.72
2023-03-06T11:30:42.712Z,6.05
2023-03-06T11:35:52.847Z,3.55
2023-03-06T11:41:00.018Z,4.28
2023-03-06T11:46:08.778Z,3.88
2023-03-06T11:51:19.224Z,4.55
2023-03-06T11:56:32.539Z,7.85
2023-03-06T12:01:38.169Z,3.70
2023-03-06T12:06:52.872Z,7.40
2023-03-06T12:12:11.485Z,2.95
2023-03-06T12:17:19.858Z,3.65
2023-03-06T12:22:36.116Z,4.10
2023-03-06T12:27:49.668Z,3.83
2023-03-06T12:33:00.213Z,4.40
2023-03-06T12:38:23.360Z,2.78
2023-03-06T12:43:57.427Z,3.13
2023-03-06T12:49:06.198Z,3.55
2023-03-06T12:54:13.691Z,3.08
2023-03-06T12:59:39.799Z,3.47
2023-03-06T13:04:53.322Z,2.35
2023-03-06T13:10:11.908Z,3.53
2023-03-06T13:15:37.967Z,4.57
2023-03-06T13:20:44.898Z,3.13
2023-03-06T13:25:50.958Z,3.65
2023-03-06T13:30:54.080Z,2.85
2023-03-06T13:35:57.931Z,5.05
2023-03-06T13:41:49.800Z,4.20
2023-03-06T13:47:00.802Z,4.78
2023-03-06T13:52:09.471Z,3.13
2023-03-06T13:57:49.628Z,2.50
2023-03-06T14:03:22.317Z,2.83
2023-03-06T14:08:28.230Z,3.00
2023-03-06T14:13:47.125Z,4.10
2023-03-06T14:18:53.843Z,3.53
2023-03-06T14:24:00.687Z,2.15
2023-03-06T14:29:05.412Z,4.18
2023-03-06T14:34:16.918Z,2.88
2023-03-06T14:39:25.532Z,3.13
2023-03-06T14:44:28.390Z,2.95
2023-03-06T14:49:32.664Z,3.83
2023-03-06T14:54:37.562Z,3.38
2023-03-06T14:59:45.239Z,3.90
2023-03-06T15:04:52.543Z,2.58
2023-03-06T15:09:56.172Z,2.35
2023-03-06T15:15:01.676Z,2.58
2023-03-06T15:20:07.970Z,2.05
2023-03-06T15:25:22.339Z,2.25
2023-03-06T15:30:28.839Z,2.58
2023-03-06T15:35:37.322Z,2.65
2023-03-06T15:40:41.081Z,1.98
2023-03-06T15:45:44.021Z,1.52
2023-03-06T15:50:48.295Z,2.70
2023-03-06T15:55:52.727Z,2.78
2023-03-06T16:00:55.608Z,2.58
2023-03-06T16:05:59.794Z,2.58
2023-03-06T16:11:02.654Z,3.63
2023-03-06T16:16:06.266Z,1.70
2023-03-06T16:21:10.552Z,3.28
2023-03-06T16:26:20.969Z,1.65
2023-03-06T16:31:24.347Z,1.77
2023-03-06T16:36:30.113Z,2.13
2023-03-06T16:41:33.276Z,3.33
2023-03-06T16:46:40.153Z,3.72
2023-03-06T16:51:44.406Z,2.30
2023-03-06T16:56:47.501Z,4.68
2023-03-06T17:01:50.349Z,2.97
2023-03-06T17:06:54.593Z,3.13
2023-03-06T17:11:57.541Z,1.83
2023-03-06T17:17:00.388Z,2.85
2023-03-06T17:22:04.714Z,1.98
2023-03-06T17:27:07.514Z,1.73
2023-03-06T17:32:10.414Z,1.80
2023-03-06T17:37:14.647Z,1.63
2023-03-06T17:42:17.530Z,1.80
2023-03-06T17:47:20.649Z,1.95
2023-03-06T17:52:24.913Z,2.83
2023-03-06T17:57:27.826Z,2.67
2023-03-06T18:02:30.632Z,2.92
2023-03-06T18:07:34.816Z,2.58
2023-03-06T18:12:37.775Z,2.53
2023-03-06T18:17:40.608Z,2.47
2023-03-06T18:22:44.790Z,2.35
2023-03-06T18:27:47.679Z,2.45
2023-03-06T18:32:50.612Z,2.15
2023-03-06T18:37:54.813Z,2.63
2023-03-06T18:42:57.624Z,2.28
2023-03-06T18:48:00.517Z,2.03
2023-03-06T18:53:04.979Z,2.83
2023-03-06T18:58:08.086Z,2.10
2023-03-06T19:03:11.192Z,2.70
2023-03-06T19:08:16.374Z,3.40
2023-03-06T19:13:19.262Z,2.05
2023-03-06T19:18:22.112Z,2.85
2023-03-06T19:23:26.441Z,2.63
2023-03-06T19:28:29.581Z,3.30
2023-03-06T19:33:33.009Z,2.47
2023-03-06T19:38:37.693Z,1.67
2023-03-06T19:43:41.130Z,2.58
2023-03-06T19:48:44.226Z,3.55
2023-03-06T19:53:48.501Z,1.77
2023-03-06T19:58:51.991Z,2.00
2023-03-06T20:03:58.451Z,2.70
2023-03-06T20:09:05.908Z,1.98
2023-03-06T20:14:09.726Z,2.97
2023-03-06T20:19:12.974Z,3.97
2023-03-06T20:24:17.988Z,2.10
2023-03-06T20:29:21.047Z,2.95
2023-03-06T20:34:24.904Z,1.63
2023-03-06T20:39:29.106Z,3.05
2023-03-06T20:44:32.178Z,2.40
2023-03-06T20:49:35.008Z,1.98
2023-03-06T20:54:39.383Z,2.65
2023-03-06T20:59:42.599Z,1.52
2023-03-06T21:04:45.529Z,5.18
2023-03-06T21:09:49.838Z,2.20
2023-03-06T21:14:52.693Z,2.90
2023-03-06T21:19:55.550Z,2.97
2023-03-06T21:24:59.973Z,2.90
2023-03-06T21:30:04.803Z,3.80
2023-03-06T21:35:08.052Z,1.80
2023-03-06T21:40:14.522Z,3.65
2023-03-06T21:45:17.577Z,2.53
2023-03-06T21:50:22.045Z,2.40
2023-03-06T21:55:26.229Z,2.70
2023-03-06T22:00:29.071Z,2.67
2023-03-06T22:05:32.736Z,5.68
2023-03-06T22:10:39.378Z,4.57
2023-03-06T22:15:50.772Z,3.83
2023-03-06T22:20:53.595Z,2.38
2023-03-06T22:26:01.658Z,5.95
2023-03-06T22:31:07.014Z,3.85
2023-03-06T22:36:12.216Z,5.93
2023-03-06T22:41:18.371Z,3.25
2023-03-06T22:46:21.246Z,3.25
2023-03-06T22:51:24.397Z,2.40
2023-03-06T22:56:28.638Z,2.00
2023-03-06T23:01:33.259Z,2.40
2023-03-06T23:06:38.075Z,2.58
2023-03-06T23:11:42.382Z,2.58
2023-03-06T23:16:45.590Z,2.67
2023-03-06T23:21:48.969Z,1.77
2023-03-06T23:26:53.130Z,2.42
2023-03-06T23:31:55.973Z,2.10
2023-03-06T23:36:58.829Z,2.42
2023-03-06T23:42:03.198Z,2.92
2023-03-06T23:47:06.346Z,2.75
2023-03-06T23:52:09.164Z,1.60
2023-03-06T23:57:13.323Z,2.40
